Time;durP1;ratioP1;P1;durP2;ratioP2;P2;SDS_P1;SDS_P2;PMS_P1;PMS_P2;Temp;Humidity;BMP_temperature;BMP_pressure;BME280_temperature;BME280_humidity;BME280_pressure;Samples;Min_cycle;Max_cycle;Signal;HPM_P1;HPM_P2
2021/04/21 00:01:06;;;;;;;8.50;2.90;;;1.10;99.90;;;;;;5029193;28;20194;-71
2021/04/21 00:03:33;;;;;;;12.27;3.78;;;1.10;99.90;;;;;;5009266;28;20207;-73
2021/04/21 00:06:00;;;;;;;7.32;2.75;;;1.10;99.90;;;;;;5013172;28;20667;-71
2021/04/21 00:08:27;;;;;;;12.00;3.20;;;1.10;99.90;;;;;;5008292;28;20285;-72
2021/04/21 00:10:53;;;;;;;8.45;3.10;;;1.00;99.90;;;;;;5027435;28;20198;-71
2021/04/21 00:13:21;;;;;;;6.05;2.80;;;1.00;99.90;;;;;;5024599;28;20198;-73
2021/04/21 00:15:48;;;;;;;7.00;3.03;;;1.00;99.90;;;;;;5029263;28;20198;-72
2021/04/21 00:18:15;;;;;;;6.32;2.72;;;0.90;99.90;;;;;;5028305;28;20190;-71
2021/04/21 00:20:42;;;;;;;4.53;2.53;;;0.90;99.90;;;;;;5023850;28;20200;-71
2021/04/21 00:23:11;;;;;;;7.93;2.97;;;0.90;99.90;;;;;;5032837;28;20201;-74
2021/04/21 00:25:39;;;;;;;4.82;2.75;;;0.90;99.90;;;;;;5007272;28;20283;-71
2021/04/21 00:28:07;;;;;;;7.43;2.75;;;0.90;99.90;;;;;;5010852;28;20194;-71
2021/04/21 00:30:35;;;;;;;4.15;2.67;;;0.80;99.90;;;;;;5011004;28;20565;-71
2021/04/21 00:33:03;;;;;;;6.80;3.35;;;0.80;99.90;;;;;;5012379;28;20206;-72
2021/04/21 00:35:39;;;;;;;10.02;3.00;;;0.80;99.90;;;;;;5020203;28;20193;-73
2021/04/21 00:38:11;;;;;;;4.88;2.50;;;0.70;99.90;;;;;;5030248;28;20220;-71
2021/04/21 00:40:41;;;;;;;6.38;3.00;;;0.70;99.90;;;;;;5025647;28;20291;-71
2021/04/21 00:43:22;;;;;;;6.68;2.85;;;0.60;99.90;;;;;;5023396;28;20206;-71
2021/04/21 00:45:54;;;;;;;6.70;2.90;;;0.60;99.90;;;;;;5025871;28;20202;-72
2021/04/21 00:48:35;;;;;;;4.47;2.72;;;0.50;99.90;;;;;;5024145;28;20202;-72
2021/04/21 00:51:04;;;;;;;4.43;2.60;;;0.40;99.90;;;;;;5023901;28;20204;-72
2021/04/21 00:53:43;;;;;;;10.52;3.28;;;0.40;99.90;;;;;;5011437;28;20901;-72
2021/04/21 00:56:22;;;;;;;7.47;3.08;;;0.40;99.90;;;;;;5025758;28;20190;-71
2021/04/21 00:58:53;;;;;;;7.60;3.13;;;0.40;99.90;;;;;;5025254;28;20194;-71
2021/04/21 01:01:21;;;;;;;4.88;2.55;;;0.40;99.90;;;;;;5013307;28;20239;-71
2021/04/21 01:03:51;;;;;;;8.43;2.65;;;0.40;99.90;;;;;;4998054;23;20974;-83
2021/04/21 01:06:21;;;;;;;7.15;2.55;;;0.40;99.90;;;;;;4983711;28;20187;-83
2021/04/21 01:08:50;;;;;;;6.57;3.05;;;0.40;99.90;;;;;;4981946;28;20192;-83
2021/04/21 01:11:24;;;;;;;8.98;2.80;;;0.40;99.90;;;;;;4967449;28;20299;-82
2021/04/21 01:14:00;;;;;;;6.60;2.97;;;0.50;99.90;;;;;;4984032;28;20198;-82
2021/04/21 01:16:30;;;;;;;5.45;3.05;;;0.50;99.90;;;;;;4982852;28;20188;-82
2021/04/21 01:19:00;;;;;;;5.95;3.17;;;0.50;99.90;;;;;;4980009;28;20672;-82
2021/04/21 01:21:37;;;;;;;6.82;3.25;;;0.50;99.90;;;;;;4970322;28;20203;-82
2021/04/21 01:24:26;;;;;;;7.30;2.92;;;0.40;99.90;;;;;;4982519;28;20715;-82
2021/04/21 01:27:05;;;;;;;7.28;2.50;;;0.40;99.90;;;;;;4984702;28;20207;-83
2021/04/21 01:29:37;;;;;;;6.63;3.00;;;0.40;99.90;;;;;;4981679;28;20243;-83
2021/04/21 01:32:16;;;;;;;5.80;2.90;;;0.30;99.90;;;;;;4983783;28;20222;-82
2021/04/21 01:34:43;;;;;;;4.95;3.08;;;0.30;99.90;;;;;;4983493;28;20654;-82
2021/04/21 01:37:12;;;;;;;4.80;3.05;;;0.40;99.90;;;;;;4982085;28;20764;-82
2021/04/21 01:39:54;;;;;;;6.65;3.00;;;0.40;99.90;;;;;;4968974;28;20208;-80
2021/04/21 01:42:26;;;;;;;9.15;3.10;;;0.30;99.90;;;;;;4972004;28;20559;-83
2021/04/21 01:44:55;;;;;;;7.65;3.35;;;0.30;99.90;;;;;;4967294;28;20273;-82
2021/04/21 01:47:22;;;;;;;7.40;3.28;;;0.30;99.90;;;;;;4968917;28;20682;-83
2021/04/21 01:50:04;;;;;;;9.38;3.13;;;0.20;99.90;;;;;;4980308;28;20235;-82
2021/04/21 01:52:41;;;;;;;7.32;2.72;;;0.20;99.90;;;;;;4966763;28;20230;-82
2021/04/21 01:55:20;;;;;;;5.00;2.72;;;0.20;99.90;;;;;;4982082;28;20226;-82
2021/04/21 01:58:23;;;;;;;7.95;3.42;;;0.20;99.90;;;;;;4965670;28;20246;-81
2021/04/21 02:00:56;;;;;;;8.93;3.15;;;0.20;99.90;;;;;;4977126;28;20207;-83
2021/04/21 02:03:28;;;;;;;9.10;3.28;;;0.20;99.90;;;;;;4981103;28;20293;-82
2021/04/21 02:06:12;;;;;;;7.38;2.85;;;0.20;99.90;;;;;;4969426;28;20293;-82
2021/04/21 02:09:04;;;;;;;9.23;3.00;;;0.30;99.90;;;;;;4989024;28;20199;-82
2021/04/21 02:11:34;;;;;;;7.43;3.60;;;0.20;99.90;;;;;;4985221;28;20208;-83
2021/04/21 02:14:21;;;;;;;9.23;3.55;;;0.30;99.90;;;;;;4987240;28;20195;-83
2021/04/21 02:16:51;;;;;;;10.07;3.38;;;0.30;99.90;;;;;;4985333;28;20196;-82
2021/04/21 02:19:49;;;;;;;6.30;3.25;;;0.30;99.90;;;;;;4986310;28;20184;-82
2021/04/21 02:22:27;;;;;;;8.93;3.55;;;0.40;99.90;;;;;;4969976;28;20681;-82
2021/04/21 02:25:21;;;;;;;9.75;3.67;;;0.30;99.90;;;;;;4971939;28;20199;-83
2021/04/21 02:28:09;;;;;;;8.15;3.60;;;0.30;99.90;;;;;;4971851;28;20204;-83
2021/04/21 02:30:46;;;;;;;7.63;3.63;;;0.40;99.90;;;;;;4988524;28;20207;-82
2021/04/21 02:33:20;;;;;;;6.22;3.38;;;0.40;99.90;;;;;;4975290;28;20747;-83
2021/04/21 02:35:50;;;;;;;9.07;3.83;;;0.40;99.90;;;;;;4982537;28;20191;-82
2021/04/21 02:38:37;;;;;;;7.22;2.95;;;0.50;99.90;;;;;;4982415;28;20330;-83
2021/04/21 02:41:24;;;;;;;7.55;3.22;;;0.50;99.90;;;;;;4970603;28;20652;-83
2021/04/21 02:44:06;;;;;;;7.07;3.13;;;0.50;99.90;;;;;;4969468;28;20712;-82
2021/04/21 02:46:44;;;;;;;8.00;3.35;;;0.60;99.90;;;;;;4984193;28;20657;-82
2021/04/21 02:49:47;;;;;;;5.18;3.10;;;0.70;99.90;;;;;;4986897;28;20745;-81
2021/04/21 02:52:30;;;;;;;5.70;3.17;;;0.70;99.90;;;;;;4971705;28;20214;-82
2021/04/21 02:55:18;;;;;;;7.22;3.30;;;0.70;99.90;;;;;;4985110;28;20198;-81
2021/04/21 02:58:28;;;;;;;9.90;3.75;;;0.80;99.90;;;;;;4985124;28;20558;-83
2021/04/21 03:01:01;;;;;;;6.07;3.00;;;0.80;99.90;;;;;;4974622;28;20281;-82
2021/04/21 03:03:29;;;;;;;9.55;3.42;;;0.80;99.90;;;;;;4969522;28;20203;-83
2021/04/21 03:06:03;;;;;;;7.97;3.58;;;0.90;99.90;;;;;;4970580;28;20286;-82
2021/04/21 03:08:39;;;;;;;7.18;3.28;;;0.90;99.90;;;;;;4970653;28;20208;-82
2021/04/21 03:11:13;;;;;;;9.15;3.53;;;0.90;99.90;;;;;;4984344;28;20227;-82
2021/04/21 03:14:02;;;;;;;8.63;3.80;;;1.00;99.90;;;;;;4982674;28;20203;-82
2021/04/21 03:16:32;;;;;;;7.70;3.75;;;1.10;99.90;;;;;;4985707;28;20203;-83
2021/04/21 03:19:02;;;;;;;8.27;3.47;;;1.30;99.90;;;;;;4969573;28;20196;-82
2021/04/21 03:21:31;;;;;;;6.85;3.42;;;1.30;99.90;;;;;;4984900;28;20212;-82
2021/04/21 03:24:20;;;;;;;11.27;3.55;;;1.40;99.90;;;;;;4984551;28;20287;-81
2021/04/21 03:26:49;;;;;;;7.45;3.47;;;1.50;99.90;;;;;;4970340;28;20214;-82
2021/04/21 03:29:25;;;;;;;8.60;3.63;;;1.50;99.90;;;;;;4988267;28;20559;-83
2021/04/21 03:31:55;;;;;;;9.60;3.50;;;1.70;99.90;;;;;;4985271;28;20274;-82
2021/04/21 03:34:22;;;;;;;8.15;3.40;;;1.70;99.90;;;;;;4981530;28;20690;-83
2021/04/21 03:36:48;;;;;;;6.90;3.03;;;1.60;99.90;;;;;;4985719;28;20658;-82
2021/04/21 03:39:15;;;;;;;6.72;3.30;;;1.60;99.90;;;;;;4990109;28;20334;-83
2021/04/21 03:41:41;;;;;;;8.10;3.53;;;1.70;99.90;;;;;;4988758;28;20200;-82
2021/04/21 03:44:07;;;;;;;9.70;3.67;;;1.70;99.90;;;;;;4973038;28;20198;-82
2021/04/21 03:46:34;;;;;;;7.03;3.00;;;1.70;99.90;;;;;;4972438;28;20345;-82
2021/04/21 03:49:00;;;;;;;5.75;3.20;;;1.70;99.90;;;;;;4985384;28;20234;-82
2021/04/21 03:51:27;;;;;;;6.63;3.75;;;1.80;99.90;;;;;;4983242;28;20213;-82
2021/04/21 03:53:54;;;;;;;10.20;3.40;;;1.90;99.90;;;;;;4985141;28;20314;-81
2021/04/21 03:56:24;;;;;;;7.55;3.28;;;1.90;99.90;;;;;;4986591;28;20702;-81
2021/04/21 03:58:53;;;;;;;10.27;3.00;;;1.90;99.90;;;;;;4981327;28;20288;-81
2021/04/21 04:01:20;;;;;;;8.18;3.40;;;1.90;99.90;;;;;;4981115;28;20666;-81
2021/04/21 04:03:59;;;;;;;8.05;3.28;;;1.90;99.90;;;;;;4964132;28;20815;-80
2021/04/21 04:06:34;;;;;;;7.22;3.10;;;1.90;99.90;;;;;;4984883;28;20282;-81
2021/04/21 04:09:03;;;;;;;5.20;3.30;;;1.90;99.90;;;;;;4973064;28;20547;-81
2021/04/21 04:11:37;;;;;;;9.95;3.35;;;1.90;99.90;;;;;;4987073;28;20259;-81
2021/04/21 04:14:37;;;;;;;11.45;3.92;;;1.90;99.90;;;;;;4977781;28;20697;-81
2021/04/21 04:17:04;;;;;;;7.63;3.85;;;1.90;99.90;;;;;;4956563;28;20204;-81
2021/04/21 04:19:41;;;;;;;7.82;3.80;;;1.90;99.90;;;;;;4968283;28;20322;-81
2021/04/21 04:22:08;;;;;;;8.35;3.60;;;1.90;99.90;;;;;;4983036;28;20245;-79
2021/04/21 04:24:53;;;;;;;7.20;3.13;;;1.90;99.90;;;;;;4976227;28;20692;-81
2021/04/21 04:27:21;;;;;;;8.02;2.75;;;1.80;99.90;;;;;;4982511;28;20669;-82
2021/04/21 04:29:48;;;;;;;7.35;3.40;;;1.80;99.90;;;;;;4966221;28;20254;-81
2021/04/21 04:32:19;;;;;;;6.55;3.42;;;1.90;99.90;;;;;;4981134;28;20238;-81
2021/04/21 04:34:47;;;;;;;7.28;3.50;;;2.00;99.90;;;;;;4983191;28;20573;-81
2021/04/21 04:37:15;;;;;;;9.50;4.28;;;2.20;99.90;;;;;;4976263;28;20240;-83
2021/04/21 04:39:42;;;;;;;7.28;4.15;;;2.30;99.90;;;;;;4989617;28;20203;-82
2021/04/21 04:42:09;;;;;;;9.00;3.58;;;2.50;99.90;;;;;;4989193;28;20250;-83
2021/04/21 04:44:37;;;;;;;13.27;4.28;;;2.70;99.90;;;;;;4989974;28;20213;-83
2021/04/21 04:47:05;;;;;;;10.10;3.55;;;3.00;99.90;;;;;;4992464;28;20195;-83
2021/04/21 04:49:38;;;;;;;9.05;3.88;;;3.20;99.90;;;;;;4976658;28;20199;-83
2021/04/21 04:52:07;;;;;;;11.38;4.05;;;3.30;99.90;;;;;;4990663;28;20215;-85
2021/04/21 04:54:35;;;;;;;11.82;4.53;;;3.50;99.90;;;;;;4989857;28;20685;-82
2021/04/21 04:57:03;;;;;;;9.95;4.60;;;3.70;99.90;;;;;;4998517;28;20734;-83
2021/04/21 04:59:31;;;;;;;17.30;4.80;;;3.80;99.90;;;;;;4995936;28;20759;-82
2021/04/21 05:01:58;;;;;;;9.63;4.55;;;3.90;99.90;;;;;;4976789;28;20203;-82
2021/04/21 05:04:40;;;;;;;16.90;4.88;;;4.10;99.90;;;;;;4987946;28;20231;-83
2021/04/21 05:07:07;;;;;;;10.85;5.10;;;4.20;99.90;;;;;;4984820;28;20295;-82
2021/04/21 05:09:42;;;;;;;17.08;4.97;;;4.40;99.90;;;;;;4989848;28;20256;-83
2021/04/21 05:12:11;;;;;;;10.27;5.07;;;4.50;99.90;;;;;;4990396;28;20334;-80
2021/04/21 05:14:46;;;;;;;14.27;5.63;;;4.60;99.90;;;;;;4988709;28;20282;-82
2021/04/21 05:17:33;;;;;;;8.00;4.43;;;4.80;99.90;;;;;;4988988;28;20203;-83
2021/04/21 05:20:10;;;;;;;10.73;5.05;;;4.90;99.90;;;;;;4986863;28;20206;-82
2021/04/21 05:22:51;;;;;;;11.73;4.88;;;5.00;99.90;;;;;;4988856;28;20210;-82
2021/04/21 05:25:54;;;;;;;11.15;5.05;;;5.20;99.90;;;;;;4988451;28;20195;-83
2021/04/21 05:28:57;;;;;;;15.45;5.47;;;5.30;99.90;;;;;;4989270;28;20210;-82
2021/04/21 05:32:00;;;;;;;11.52;5.70;;;5.50;99.90;;;;;;4972022;28;20199;-83
2021/04/21 05:34:47;;;;;;;13.27;5.90;;;5.60;99.90;;;;;;4973240;28;20528;-83
2021/04/21 05:37:50;;;;;;;18.10;6.05;;;5.70;99.90;;;;;;4987915;28;20192;-83
2021/04/21 05:40:56;;;;;;;14.90;5.50;;;5.90;99.90;;;;;;4970629;28;20282;-83
2021/04/21 05:43:59;;;;;;;15.07;5.95;;;6.00;99.90;;;;;;4986928;28;20704;-83
2021/04/21 05:47:05;;;;;;;12.88;5.80;;;6.20;99.90;;;;;;4993330;28;20221;-83
2021/04/21 05:49:58;;;;;;;10.52;5.53;;;6.50;99.90;;;;;;4995717;28;20303;-83
2021/04/21 05:52:58;;;;;;;15.88;6.20;;;6.80;99.90;;;;;;4989548;28;20677;-83
2021/04/21 05:55:42;;;;;;;13.93;6.53;;;7.10;99.90;;;;;;4991853;28;20242;-83
2021/04/21 05:58:22;;;;;;;13.27;5.68;;;7.40;99.90;;;;;;4990207;28;20503;-84
2021/04/21 06:00:57;;;;;;;12.10;6.10;;;7.50;99.90;;;;;;4992000;28;20566;-83
2021/04/21 06:03:24;;;;;;;14.05;6.07;;;7.50;99.90;;;;;;4992713;28;20758;-84
2021/04/21 06:05:49;;;;;;;14.10;6.25;;;7.50;99.90;;;;;;4974388;28;20677;-84
2021/04/21 06:08:15;;;;;;;14.38;5.68;;;7.40;99.90;;;;;;4984044;28;20259;-84
2021/04/21 06:10:42;;;;;;;19.25;6.82;;;7.40;99.90;;;;;;4990683;28;20294;-83
2021/04/21 06:13:10;;;;;;;20.40;6.43;;;7.40;99.90;;;;;;4992798;28;20257;-83
2021/04/21 06:15:38;;;;;;;21.33;6.70;;;7.50;99.90;;;;;;4974532;28;20670;-84
2021/04/21 06:18:08;;;;;;;20.00;6.35;;;7.60;99.90;;;;;;4984274;28;20196;-83
2021/04/21 06:20:39;;;;;;;14.13;5.97;;;7.80;99.90;;;;;;4976074;28;20199;-83
2021/04/21 06:23:20;;;;;;;20.55;6.65;;;8.00;99.90;;;;;;4993519;28;20285;-84
2021/04/21 06:26:04;;;;;;;14.27;6.63;;;8.30;99.90;;;;;;4974151;28;20206;-83
2021/04/21 06:28:30;;;;;;;16.33;6.63;;;8.50;99.90;;;;;;4985158;28;20223;-85
2021/04/21 06:31:13;;;;;;;15.10;6.30;;;8.60;99.90;;;;;;4980580;28;20571;-84
2021/04/21 06:33:43;;;;;;;14.23;6.05;;;8.60;99.90;;;;;;4967285;28;20211;-85
2021/04/21 06:36:11;;;;;;;13.32;6.53;;;8.60;99.90;;;;;;4968434;28;20282;-83
2021/04/21 06:38:38;;;;;;;13.25;5.95;;;8.60;99.90;;;;;;4983338;28;20250;-83
2021/04/21 06:41:04;;;;;;;15.77;6.78;;;8.50;99.90;;;;;;4969300;28;20258;-84
2021/04/21 06:43:33;;;;;;;15.70;6.80;;;8.40;99.90;;;;;;4980964;28;20200;-82
2021/04/21 06:45:59;;;;;;;16.33;6.72;;;8.30;99.90;;;;;;4982882;28;20682;-82
2021/04/21 06:48:33;;;;;;;17.75;6.93;;;8.20;99.90;;;;;;4982434;28;20206;-79
2021/04/21 06:51:26;;;;;;;23.38;6.93;;;8.00;99.90;;;;;;4983183;28;20203;-81
2021/04/21 06:53:53;;;;;;;15.57;6.50;;;7.80;99.90;;;;;;4981662;28;20215;-78
2021/04/21 06:56:27;;;;;;;18.75;6.68;;;7.70;99.90;;;;;;4983215;28;20700;-80
2021/04/21 06:58:53;;;;;;;16.33;6.68;;;7.60;99.90;;;;;;4981652;28;20605;-79
2021/04/21 07:01:24;;;;;;;19.45;7.10;;;7.50;99.90;;;;;;4982531;28;20199;-83
2021/04/21 07:03:52;;;;;;;20.33;7.03;;;7.50;99.90;;;;;;4961833;28;20247;-83
2021/04/21 07:06:19;;;;;;;20.60;6.88;;;7.50;99.90;;;;;;4968731;28;20196;-82
2021/04/21 07:08:46;;;;;;;16.40;6.78;;;7.50;99.90;;;;;;4965431;28;20197;-83
2021/04/21 07:11:11;;;;;;;17.15;7.28;;;7.40;99.90;;;;;;4967633;28;20776;-82
2021/04/21 07:13:51;;;;;;;18.27;7.15;;;7.40;99.90;;;;;;4984329;28;20497;-83
2021/04/21 07:16:26;;;;;;;17.92;6.95;;;7.40;99.90;;;;;;4969099;28;20287;-82
2021/04/21 07:18:56;;;;;;;24.80;6.80;;;7.50;99.90;;;;;;4982074;28;20214;-83
2021/04/21 07:21:22;;;;;;;14.30;7.10;;;7.60;99.90;;;;;;4984744;28;20207;-82
2021/04/21 07:23:52;;;;;;;11.77;6.65;;;7.60;99.90;;;;;;4982440;28;20673;-81
2021/04/21 07:26:18;;;;;;;22.60;7.15;;;7.60;99.90;;;;;;4990112;28;20657;-83
2021/04/21 07:28:46;;;;;;;19.52;7.03;;;7.60;99.90;;;;;;4967756;28;20325;-83
2021/04/21 07:31:17;;;;;;;20.15;8.00;;;7.70;99.90;;;;;;4977814;28;20283;-81
2021/04/21 07:33:45;;;;;;;19.58;7.13;;;7.50;99.90;;;;;;4969036;28;20229;-80
2021/04/21 07:36:14;;;;;;;18.35;7.88;;;7.50;99.90;;;;;;4985168;28;20661;-82
2021/04/21 07:38:45;;;;;;;25.95;7.47;;;7.60;99.90;;;;;;4982072;28;20559;-82
2021/04/21 07:41:13;;;;;;;27.08;7.97;;;7.60;99.90;;;;;;4980761;28;20219;-80
2021/04/21 07:43:48;;;;;;;21.58;7.60;;;7.80;99.90;;;;;;4983200;28;20618;-77
2021/04/21 07:46:20;;;;;;;21.20;7.57;;;8.00;99.90;;;;;;4985428;28;20199;-77
2021/04/21 07:48:49;;;;;;;17.20;8.05;;;8.30;99.90;;;;;;4982713;28;20202;-84
2021/04/21 07:51:15;;;;;;;27.92;8.95;;;8.50;99.90;;;;;;4981656;28;20282;-80
2021/04/21 07:54:04;;;;;;;18.63;7.50;;;8.70;99.90;;;;;;4982045;28;20205;-82
2021/04/21 07:56:54;;;;;;;18.35;7.30;;;8.90;99.90;;;;;;4977755;28;20258;-83
2021/04/21 07:59:43;;;;;;;20.85;8.13;;;9.00;99.90;;;;;;4967127;28;20640;-82
2021/04/21 08:02:10;;;;;;;15.32;7.72;;;8.90;99.90;;;;;;4986523;28;20206;-83
2021/04/21 08:04:48;;;;;;;21.70;8.80;;;8.90;99.90;;;;;;4980076;28;20243;-85
2021/04/21 08:07:45;;;;;;;18.67;8.07;;;8.80;99.90;;;;;;4986720;28;20207;-83
2021/04/21 08:10:16;;;;;;;27.30;9.13;;;8.60;99.90;;;;;;4966899;28;20218;-80
2021/04/21 08:12:42;;;;;;;17.95;7.68;;;8.60;99.90;;;;;;4987631;28;20690;-82
2021/04/21 08:15:10;;;;;;;18.65;8.30;;;8.70;99.90;;;;;;4981187;28;20349;-80
2021/04/21 08:17:50;;;;;;;22.30;8.55;;;8.80;99.90;;;;;;4985124;28;20204;-82
2021/04/21 08:20:24;;;;;;;20.50;8.18;;;9.10;99.90;;;;;;4979423;28;20191;-82
2021/04/21 08:22:55;;;;;;;15.75;7.63;;;9.20;99.90;;;;;;4970762;28;20207;-80
2021/04/21 08:25:21;;;;;;;16.00;8.00;;;9.30;99.90;;;;;;4983265;28;20269;-81
2021/04/21 08:27:46;;;;;;;28.65;8.30;;;9.40;99.90;;;;;;4985304;28;20728;-80
2021/04/21 08:30:22;;;;;;;19.55;7.82;;;9.50;99.90;;;;;;4985887;28;20757;-83
2021/04/21 08:32:48;;;;;;;18.92;7.30;;;9.60;99.90;;;;;;4983889;28;20270;-84
2021/04/21 08:35:15;;;;;;;14.23;7.43;;;9.50;99.90;;;;;;4986029;28;20669;-83
2021/04/21 08:37:42;;;;;;;19.75;7.28;;;9.50;99.90;;;;;;4977793;28;20203;-86
2021/04/21 08:40:11;;;;;;;14.18;7.63;;;9.70;99.90;;;;;;4990677;28;20690;-87
2021/04/21 08:42:44;;;;;;;12.80;6.53;;;9.70;99.90;;;;;;4986189;28;20210;-86
2021/04/21 08:45:12;;;;;;;15.73;6.32;;;9.90;99.90;;;;;;4989210;28;20199;-85
2021/04/21 08:47:40;;;;;;;19.73;6.63;;;10.20;99.90;;;;;;4971080;28;20963;-82
2021/04/21 08:50:09;;;;;;;15.23;6.40;;;10.60;99.90;;;;;;4981976;28;20708;-80
2021/04/21 08:52:49;;;;;;;15.98;6.00;;;11.00;99.90;;;;;;4983709;28;20215;-80
2021/04/21 08:55:17;;;;;;;20.80;6.35;;;11.30;99.90;;;;;;4981546;28;20209;-80
2021/04/21 08:57:44;;;;;;;10.52;5.40;;;11.50;99.90;;;;;;4963498;28;20206;-80
2021/04/21 09:00:14;;;;;;;12.07;5.30;;;11.70;99.90;;;;;;4983563;28;20561;-79
2021/04/21 09:02:40;;;;;;;11.05;5.20;;;12.00;99.90;;;;;;4982347;28;20638;-80
2021/04/21 09:05:07;;;;;;;14.32;5.97;;;12.60;99.90;;;;;;4976951;28;20289;-79
2021/04/21 09:07:36;;;;;;;9.82;4.80;;;13.30;99.90;;;;;;4964135;28;20503;-86
2021/04/21 09:10:15;;;;;;;10.25;5.03;;;13.40;99.90;;;;;;4969528;28;20215;-84
2021/04/21 09:12:41;;;;;;;12.05;5.20;;;13.10;99.90;;;;;;4976105;28;20246;-85
2021/04/21 09:15:09;;;;;;;11.30;4.70;;;13.00;99.90;;;;;;4976179;28;20342;-83
2021/04/21 09:17:47;;;;;;;8.98;4.35;;;12.60;99.90;;;;;;4981408;28;20221;-80
2021/04/21 09:20:16;;;;;;;13.52;4.60;;;12.40;99.90;;;;;;4983965;28;20199;-83
2021/04/21 09:23:12;;;;;;;11.57;4.97;;;12.50;99.90;;;;;;4985456;28;20572;-84
2021/04/21 09:25:39;;;;;;;9.65;4.20;;;12.90;99.90;;;;;;4966911;28;20226;-83
2021/04/21 09:28:06;;;;;;;9.00;4.00;;;12.80;99.90;;;;;;4981300;28;20210;-85
2021/04/21 09:30:45;;;;;;;13.90;4.20;;;12.50;99.90;;;;;;4981492;28;20199;-86
2021/04/21 09:33:11;;;;;;;12.60;4.32;;;12.10;99.90;;;;;;4982847;28;20289;-85
2021/04/21 09:35:48;;;;;;;12.20;4.60;;;11.50;99.90;;;;;;4983087;28;20290;-83
2021/04/21 09:38:29;;;;;;;19.60;5.25;;;10.80;99.90;;;;;;4966253;28;20581;-78
2021/04/21 09:41:02;;;;;;;8.23;5.03;;;10.30;99.90;;;;;;4962666;28;20196;-77
2021/04/21 09:43:38;;;;;;;8.68;4.40;;;10.20;99.90;;;;;;4977939;28;20306;-77
2021/04/21 09:46:17;;;;;;;10.95;4.93;;;10.00;99.90;;;;;;4981168;28;20203;-81
2021/04/21 09:48:45;;;;;;;13.40;5.03;;;9.80;99.90;;;;;;4967329;28;20195;-80
2021/04/21 09:51:16;;;;;;;7.38;3.65;;;9.50;99.90;;;;;;4980839;28;20195;-80
2021/04/21 09:53:47;;;;;;;8.20;3.90;;;9.30;99.90;;;;;;4978458;28;20295;-84
2021/04/21 09:56:19;;;;;;;7.00;3.65;;;9.20;99.90;;;;;;4984814;28;20761;-84
2021/04/21 09:58:48;;;;;;;11.02;3.67;;;9.20;99.90;;;;;;4977784;28;20226;-81
2021/04/21 10:01:35;;;;;;;7.53;3.22;;;9.30;99.90;;;;;;4978481;28;20206;-82
2021/04/21 10:04:12;;;;;;;6.50;3.05;;;9.40;99.90;;;;;;4961421;28;20668;-82
2021/04/21 10:06:49;;;;;;;9.07;3.78;;;9.50;99.90;;;;;;4969400;28;20613;-82
2021/04/21 10:09:23;;;;;;;11.90;2.80;;;9.80;99.90;;;;;;4970619;28;20208;-83
2021/04/21 10:11:49;;;;;;;4.35;2.30;;;9.70;99.90;;;;;;4961479;28;20710;-82
2021/04/21 10:14:25;;;;;;;7.00;2.47;;;9.50;99.90;;;;;;4962535;28;20196;-81
2021/04/21 10:16:52;;;;;;;7.32;2.28;;;9.40;99.90;;;;;;4977985;28;20191;-84
2021/04/21 10:19:18;;;;;;;2.80;1.90;;;9.40;99.90;;;;;;4975396;28;20200;-84
2021/04/21 10:21:45;;;;;;;2.08;1.73;;;9.20;99.90;;;;;;4962700;28;20328;-83
2021/04/21 10:24:11;;;;;;;3.67;1.73;;;9.10;99.90;;;;;;4978389;28;20206;-83
2021/04/21 10:26:38;;;;;;;5.43;1.67;;;9.40;99.90;;;;;;4978066;28;20204;-83
2021/04/21 10:29:04;;;;;;;2.65;1.63;;;9.50;99.90;;;;;;4978593;28;20208;-82
2021/04/21 10:31:30;;;;;;;1.95;1.63;;;9.80;99.90;;;;;;4960561;28;20230;-83
2021/04/21 10:33:56;;;;;;;2.67;1.80;;;9.70;99.90;;;;;;4974012;28;20279;-83
2021/04/21 10:36:22;;;;;;;2.28;1.67;;;9.70;99.90;;;;;;4981641;28;20749;-84
2021/04/21 10:38:49;;;;;;;2.25;1.60;;;9.60;99.90;;;;;;4977397;28;20206;-82
2021/04/21 10:41:28;;;;;;;6.07;1.90;;;9.80;99.90;;;;;;4962985;28;20205;-83
2021/04/21 10:44:11;;;;;;;3.42;2.00;;;9.50;99.90;;;;;;4974869;28;20207;-82
2021/04/21 10:46:59;;;;;;;4.68;1.90;;;9.40;99.90;;;;;;4969956;28;20207;-81
2021/04/21 10:49:50;;;;;;;5.43;1.70;;;9.70;99.90;;;;;;4975919;28;20204;-81
2021/04/21 10:52:17;;;;;;;3.22;1.98;;;9.90;99.90;;;;;;4962381;28;20211;-82
2021/04/21 10:54:50;;;;;;;4.25;2.22;;;10.60;99.90;;;;;;4964923;28;20748;-83
2021/04/21 10:57:22;;;;;;;4.15;1.67;;;11.60;99.90;;;;;;4979051;28;20678;-82
2021/04/21 11:00:13;;;;;;;2.95;1.80;;;12.40;99.90;;;;;;4962855;28;20365;-84
2021/04/21 11:02:47;;;;;;;2.42;1.75;;;12.10;99.90;;;;;;4968092;28;20783;-84
2021/04/21 11:05:29;;;;;;;4.35;1.95;;;11.60;99.90;;;;;;4976953;28;20227;-85
2021/04/21 11:08:16;;;;;;;2.33;1.80;;;11.10;99.90;;;;;;4959460;28;20211;-82
2021/04/21 11:10:51;;;;;;;5.30;1.70;;;10.70;99.90;;;;;;4971907;28;20302;-82
2021/04/21 11:13:35;;;;;;;2.75;1.67;;;10.30;99.90;;;;;;4977541;28;20208;-80
2021/04/21 11:16:02;;;;;;;3.40;1.77;;;10.30;99.90;;;;;;4964702;28;20196;-81
2021/04/21 11:18:28;;;;;;;4.05;1.83;;;10.30;99.90;;;;;;4973773;28;20367;-83
2021/04/21 11:21:00;;;;;;;2.03;1.50;;;10.30;99.90;;;;;;4963914;28;20204;-83
2021/04/21 11:23:49;;;;;;;3.83;1.70;;;10.10;99.90;;;;;;4978269;28;20200;-84
2021/04/21 11:26:33;;;;;;;5.35;1.70;;;10.30;99.90;;;;;;4978333;28;20199;-84
2021/04/21 11:29:27;;;;;;;3.13;1.52;;;10.30;99.90;;;;;;4960413;28;20848;-86
2021/04/21 11:31:53;;;;;;;2.08;1.30;;;10.30;99.90;;;;;;4958487;28;20671;-84
2021/04/21 11:34:27;;;;;;;5.68;1.35;;;10.60;99.90;;;;;;4966349;28;20192;-83
2021/04/21 11:37:00;;;;;;;3.00;1.55;;;10.80;99.90;;;;;;4974172;28;20211;-81
2021/04/21 11:39:44;;;;;;;1.73;1.40;;;11.00;99.90;;;;;;4960346;28;20359;-81
2021/04/21 11:42:34;;;;;;;2.22;1.50;;;11.40;99.90;;;;;;4975449;28;20752;-83
2021/04/21 11:45:30;;;;;;;3.63;1.52;;;11.80;99.90;;;;;;4974007;28;20215;-84
2021/04/21 11:52:23;;;;;;;;;;;;;;;;;;;;;
2021/04/21 11:54:49;;;;;;;1.83;1.40;;;12.00;99.90;;;;;;4919552;29;21042;-87
2021/04/21 11:57:30;;;;;;;3.70;1.45;;;11.70;99.90;;;;;;4905838;29;20625;-88
2021/04/21 12:00:11;;;;;;;4.80;2.00;;;11.40;99.90;;;;;;4920772;29;20208;-85
2021/04/21 12:02:37;;;;;;;2.65;1.60;;;11.20;99.90;;;;;;4901781;29;21813;-85
2021/04/21 12:05:18;;;;;;;2.50;1.80;;;11.10;99.90;;;;;;4918357;29;20696;-84
2021/04/21 12:07:48;;;;;;;2.33;1.50;;;11.20;99.90;;;;;;4944958;28;20789;-84
2021/04/21 12:10:21;;;;;;;3.17;1.52;;;11.20;99.90;;;;;;4974102;28;21270;-80
2021/04/21 12:12:47;;;;;;;2.35;1.58;;;10.70;99.90;;;;;;4976553;28;20212;-82
2021/04/21 12:15:14;;;;;;;1.88;1.40;;;10.30;99.90;;;;;;4957674;28;20200;-83
2021/04/21 12:17:54;;;;;;;1.60;1.40;;;9.90;99.90;;;;;;4980944;28;20730;-84
2021/04/21 12:20:23;;;;;;;2.17;1.33;;;9.40;99.90;;;;;;4963162;28;20196;-84
2021/04/21 12:22:49;;;;;;;1.50;1.30;;;9.20;99.90;;;;;;4977598;28;20203;-84
2021/04/21 12:25:15;;;;;;;1.67;1.50;;;9.30;99.90;;;;;;4957879;28;20208;-80
2021/04/21 12:27:42;;;;;;;1.75;1.30;;;10.20;99.90;;;;;;4961366;28;20667;-83
2021/04/21 12:30:15;;;;;;;1.50;1.20;;;11.10;99.90;;;;;;4976634;28;20211;-83
2021/04/21 12:32:41;;;;;;;1.33;0.90;;;11.90;99.90;;;;;;4976955;28;20727;-82
2021/04/21 12:35:09;;;;;;;1.83;1.20;;;11.90;99.90;;;;;;4978734;28;20196;-84
2021/04/21 12:37:36;;;;;;;1.10;1.00;;;11.90;99.90;;;;;;4975372;28;20208;-85
2021/04/21 12:40:23;;;;;;;0.90;0.90;;;11.60;99.90;;;;;;4958866;28;20915;-85
2021/04/21 12:42:51;;;;;;;0.80;0.80;;;11.40;99.90;;;;;;4960634;28;20662;-85
2021/04/21 12:45:31;;;;;;;0.93;0.80;;;11.60;99.90;;;;;;4976016;28;20196;-86
2021/04/21 12:47:57;;;;;;;0.73;0.73;;;11.80;99.90;;;;;;4957627;28;20687;-83
2021/04/21 12:50:42;;;;;;;0.70;0.70;;;12.40;99.90;;;;;;4959514;28;20208;-86
2021/04/21 12:53:19;;;;;;;0.70;0.70;;;12.30;99.90;;;;;;4975967;28;20690;-84
2021/04/21 12:55:49;;;;;;;0.70;0.70;;;12.10;99.90;;;;;;4976067;28;20206;-79
2021/04/21 12:58:37;;;;;;;4.78;0.77;;;12.70;99.90;;;;;;4961932;28;20283;-82
2021/04/21 13:01:16;;;;;;;0.70;0.70;;;12.80;99.90;;;;;;4971711;28;20219;-80
2021/04/21 13:03:56;;;;;;;0.75;0.75;;;13.60;99.90;;;;;;4971541;28;20232;-82
2021/04/21 13:06:42;;;;;;;0.80;0.70;;;13.80;99.90;;;;;;4959958;28;20200;-82
2021/04/21 13:09:21;;;;;;;0.75;0.75;;;13.30;99.90;;;;;;4959494;28;20258;-82
2021/04/21 13:11:57;;;;;;;0.68;0.68;;;13.20;99.90;;;;;;4978064;28;21236;-82
2021/04/21 13:14:33;;;;;;;0.50;0.50;;;13.60;99.90;;;;;;4961083;28;20199;-81
2021/04/21 13:16:59;;;;;;;0.52;0.52;;;13.60;99.90;;;;;;4973614;28;20196;-85
2021/04/21 13:19:30;;;;;;;0.70;0.70;;;13.70;99.90;;;;;;4963774;28;20303;-82
2021/04/21 13:22:10;;;;;;;0.60;0.60;;;13.80;99.90;;;;;;4972224;28;20200;-86
2021/04/21 13:24:49;;;;;;;0.68;0.68;;;14.00;99.50;;;;;;4962676;28;20564;-84
2021/04/21 13:27:18;;;;;;;0.60;0.60;;;13.80;99.30;;;;;;4976921;28;20204;-84
2021/04/21 13:29:53;;;;;;;0.70;0.70;;;13.30;99.90;;;;;;4977523;28;20599;-83
2021/04/21 13:32:19;;;;;;;0.80;0.80;;;12.50;99.90;;;;;;4964225;28;20199;-83